Time;durP1;ratioP1;P1;durP2;ratioP2;P2;SDS_P1;SDS_P2;PMS_P1;PMS_P2;Temp;Humidity;BMP_temperature;BMP_pressure;BME280_temperature;BME280_humidity;BME280_pressure;Samples;Min_cycle;Max_cycle;Signal;HPM_P1;HPM_P2
2022/09/30 00:00:21;;;;;;;13.03;10.77;;;;;;;8.71;98.23;100751.75;4969469;28;20232;-81
2022/09/30 00:02:47;;;;;;;11.43;10.00;;;;;;;8.59;98.41;100745.47;4961905;28;20185;-79
2022/09/30 00:05:13;;;;;;;11.87;9.97;;;;;;;8.60;97.61;100744.66;4963223;28;20627;-80
2022/09/30 00:07:38;;;;;;;11.43;10.23;;;;;;;8.56;98.03;100751.38;4962865;28;20252;-80
2022/09/30 00:10:06;;;;;;;13.23;10.63;;;;;;;8.56;98.12;100753.94;4974178;28;20223;-82
2022/09/30 00:12:31;;;;;;;13.63;10.60;;;;;;;8.58;98.56;100749.75;4956328;28;20327;-81
2022/09/30 00:14:57;;;;;;;12.00;10.50;;;;;;;8.54;99.22;100752.16;4957117;28;20670;-80
2022/09/30 00:17:22;;;;;;;12.33;10.93;;;;;;;8.44;98.31;100751.03;4954225;28;20189;-81
2022/09/30 00:19:47;;;;;;;11.37;9.80;;;;;;;8.35;99.28;100755.94;4961674;28;20219;-82
2022/09/30 00:22:13;;;;;;;13.00;10.13;;;;;;;8.32;98.89;100754.97;4952855;28;20624;-82
2022/09/30 00:24:38;;;;;;;11.03;9.53;;;;;;;8.30;98.58;100757.47;4955591;28;20256;-82
2022/09/30 00:27:04;;;;;;;14.03;9.57;;;;;;;8.24;98.26;100762.41;4956909;28;20231;-81
2022/09/30 00:29:29;;;;;;;10.50;9.30;;;;;;;8.15;98.36;100761.28;4954896;28;20597;-82
2022/09/30 00:31:54;;;;;;;11.30;10.10;;;;;;;8.09;98.42;100767.06;4970906;28;20201;-82
2022/09/30 00:34:20;;;;;;;12.10;9.73;;;;;;;8.03;96.83;100756.72;4955364;28;20275;-82
2022/09/30 00:36:52;;;;;;;12.67;9.43;;;;;;;7.97;97.30;100765.88;4957125;28;20217;-82
2022/09/30 00:39:26;;;;;;;13.63;9.13;;;;;;;7.91;97.00;100755.47;4960610;28;20192;-82
2022/09/30 00:41:56;;;;;;;9.43;8.43;;;;;;;7.89;97.67;100758.00;4957216;28;20188;-81
2022/09/30 00:44:40;;;;;;;10.07;8.97;;;;;;;7.84;97.14;100763.78;4964161;28;20292;-82
2022/09/30 00:47:18;;;;;;;11.43;9.13;;;;;;;7.84;97.81;100754.44;4955055;28;20218;-82
2022/09/30 00:49:44;;;;;;;9.33;8.27;;;;;;;7.97;98.41;100755.69;4958533;28;20231;-80
2022/09/30 00:52:09;;;;;;;10.30;9.23;;;;;;;8.01;98.42;100757.50;4972001;28;20257;-78
2022/09/30 00:54:35;;;;;;;12.27;10.67;;;;;;;7.99;98.76;100762.53;4966953;28;20206;-80
2022/09/30 00:57:03;;;;;;;14.13;10.67;;;;;;;7.91;99.26;100758.03;4949667;28;20185;-81
2022/09/30 00:59:33;;;;;;;11.50;10.30;;;;;;;7.87;98.81;100766.44;4956146;28;20263;-79
2022/09/30 01:02:00;;;;;;;13.17;10.17;;;;;;;7.77;98.77;100760.19;4965685;28;20201;-81
2022/09/30 01:04:29;;;;;;;12.20;10.57;;;;;;;7.72;98.11;100764.31;4966244;28;20197;-81
2022/09/30 01:06:59;;;;;;;12.27;9.40;;;;;;;7.69;98.43;100758.25;4952288;28;20217;-81
2022/09/30 01:09:25;;;;;;;10.37;9.30;;;;;;;7.67;99.13;100763.31;4962536;28;20280;-81
2022/09/30 01:11:50;;;;;;;10.17;8.93;;;;;;;7.64;98.68;100763.19;4952066;28;20220;-79
2022/09/30 01:14:22;;;;;;;12.67;10.73;;;;;;;7.56;98.08;100774.84;4964527;28;20208;-82
2022/09/30 01:17:06;;;;;;;15.27;10.37;;;;;;;7.53;98.04;100777.31;4967752;28;20205;-82
2022/09/30 01:19:46;;;;;;;12.23;9.73;;;;;;;7.45;98.27;100788.94;4970102;28;20217;-79
2022/09/30 01:22:46;;;;;;;11.13;9.63;;;;;;;7.48;97.28;100783.09;4961999;28;20540;-82
2022/09/30 01:25:12;;;;;;;14.07;10.43;;;;;;;7.43;97.16;100785.50;4972202;28;20716;-79
2022/09/30 01:27:59;;;;;;;14.17;9.77;;;;;;;7.44;98.05;100776.16;4970412;28;20189;-79
2022/09/30 01:31:02;;;;;;;12.50;10.73;;;;;;;7.40;98.61;100780.31;4968349;28;20281;-82
2022/09/30 01:33:43;;;;;;;14.50;10.30;;;;;;;7.34;98.14;100785.22;4948358;29;20185;-83
2022/09/30 01:36:39;;;;;;;12.13;10.50;;;;;;;7.26;98.29;100788.31;4952626;28;20394;-82
2022/09/30 01:39:16;;;;;;;12.03;10.73;;;;;;;7.21;97.97;100789.88;4949600;29;20193;-82
2022/09/30 01:41:51;;;;;;;13.57;10.73;;;;;;;7.17;97.75;100795.66;4952368;28;20730;-81
2022/09/30 01:44:32;;;;;;;11.57;9.93;;;;;;;7.23;97.04;100801.81;4951288;28;20212;-81
2022/09/30 01:47:00;;;;;;;10.33;9.23;;;;;;;7.13;97.51;100804.03;4953483;28;20221;-81
2022/09/30 01:49:42;;;;;;;12.00;9.07;;;;;;;7.11;97.08;100800.56;4966331;28;20268;-81
2022/09/30 01:52:15;;;;;;;11.97;9.53;;;;;;;7.11;97.55;100804.00;4952773;28;20200;-81
2022/09/30 01:54:53;;;;;;;12.53;9.73;;;;;;;7.20;98.30;100805.97;4971624;28;20193;-81
2022/09/30 01:57:41;;;;;;;12.20;9.57;;;;;;;7.11;98.92;100806.53;4971767;28;20193;-81
2022/09/30 02:00:11;;;;;;;12.50;9.30;;;;;;;7.11;99.04;100810.75;4956273;28;20643;-82
2022/09/30 02:02:58;;;;;;;9.80;8.80;;;;;;;7.15;98.56;100810.91;4973947;28;20272;-83
2022/09/30 02:05:27;;;;;;;10.90;9.07;;;;;;;7.24;99.08;100811.19;4968350;28;20709;-80
2022/09/30 02:08:15;;;;;;;11.77;9.87;;;;;;;7.26;99.05;100809.56;4969584;28;20531;-81
2022/09/30 02:10:46;;;;;;;14.30;9.60;;;;;;;7.26;100.00;100807.03;4966079;28;20706;-81
2022/09/30 02:13:19;;;;;;;12.33;10.73;;;;;;;7.25;100.00;100804.44;4969019;28;20255;-83
2022/09/30 02:15:51;;;;;;;11.13;9.97;;;;;;;7.21;100.00;100805.13;4955958;29;20275;-82
2022/09/30 02:18:40;;;;;;;12.07;10.77;;;;;;;7.14;100.00;100814.25;4955621;28;20207;-81
2022/09/30 02:21:07;;;;;;;13.60;11.30;;;;;;;7.11;100.00;100815.84;4954805;28;20229;-82
2022/09/30 02:23:39;;;;;;;24.77;15.60;;;;;;;7.11;100.00;100819.28;4967094;28;20185;-81
2022/09/30 02:26:28;;;;;;;12.63;10.27;;;;;;;7.13;100.00;100811.66;4951480;28;20201;-81
2022/09/30 02:29:03;;;;;;;14.13;10.70;;;;;;;7.17;100.00;100811.81;4967919;28;20220;-78
2022/09/30 02:31:32;;;;;;;13.73;11.73;;;;;;;7.23;100.00;100811.16;4972203;28;20240;-82
2022/09/30 02:34:14;;;;;;;15.60;12.53;;;;;;;7.25;100.00;100812.94;4967788;28;20197;-83
2022/09/30 02:36:46;;;;;;;12.93;11.43;;;;;;;7.25;100.00;100809.50;4949906;29;20734;-81
2022/09/30 02:39:55;;;;;;;14.70;11.70;;;;;;;7.23;100.00;100821.34;4968078;28;20197;-83
2022/09/30 02:42:27;;;;;;;18.80;13.47;;;;;;;7.19;100.00;100824.59;4929568;28;20241;-81
2022/09/30 02:44:56;;;;;;;17.17;12.47;;;;;;;7.21;100.00;100826.38;4975356;28;20706;-82
2022/09/30 02:47:43;;;;;;;18.37;13.77;;;;;;;7.22;100.00;100829.78;4974878;28;20193;-79
2022/09/30 02:50:22;;;;;;;20.87;14.83;;;;;;;7.27;100.00;100838.47;4941050;29;20299;-82
2022/09/30 02:52:54;;;;;;;15.80;12.37;;;;;;;7.36;100.00;100837.06;4957720;28;20181;-83
2022/09/30 02:55:57;;;;;;;12.40;10.60;;;;;;;7.42;100.00;100837.25;4955120;29;20193;-80
2022/09/30 02:58:26;;;;;;;11.90;10.40;;;;;;;7.48;100.00;100834.91;4975991;28;20196;-79
2022/09/30 03:00:53;;;;;;;12.07;10.60;;;;;;;7.55;100.00;100834.25;4958325;28;20287;-82
2022/09/30 03:03:28;;;;;;;12.23;10.27;;;;;;;7.61;100.00;100833.59;4974356;28;20596;-83
2022/09/30 03:05:54;;;;;;;11.83;10.40;;;;;;;7.65;100.00;100840.53;4935523;28;20228;-81
2022/09/30 03:08:19;;;;;;;11.77;10.07;;;;;;;7.68;100.00;100836.38;4953520;28;20197;-81
2022/09/30 03:10:51;;;;;;;14.73;10.77;;;;;;;7.66;100.00;100840.56;4965267;28;20212;-81
2022/09/30 03:13:38;;;;;;;12.83;11.10;;;;;;;7.69;100.00;100839.81;4959972;28;20224;-81
2022/09/30 03:16:28;;;;;;;12.73;11.37;;;;;;;7.72;100.00;100840.75;4960675;28;20217;-82
2022/09/30 03:19:09;;;;;;;13.10;11.43;;;;;;;7.69;100.00;100840.66;4975255;28;20262;-80
2022/09/30 03:21:59;;;;;;;12.53;11.07;;;;;;;7.68;100.00;100843.13;4954725;29;20809;-80
2022/09/30 03:24:50;;;;;;;12.30;10.77;;;;;;;7.67;100.00;100842.28;4962209;28;20203;-83
2022/09/30 03:27:34;;;;;;;14.97;12.80;;;;;;;7.68;100.00;100848.22;4954423;29;20260;-80
2022/09/30 03:30:12;;;;;;;16.07;12.30;;;;;;;7.65;100.00;100856.66;4954565;28;20315;-81
2022/09/30 03:33:11;;;;;;;12.50;11.20;;;;;;;7.69;100.00;100850.84;4957207;28;20185;-80
2022/09/30 03:35:55;;;;;;;13.83;11.77;;;;;;;7.69;100.00;100853.38;4957641;28;20181;-82
2022/09/30 03:38:27;;;;;;;19.43;14.60;;;;;;;7.67;100.00;100857.59;4954722;28;20756;-83
2022/09/30 03:41:04;;;;;;;18.70;14.03;;;;;;;7.64;100.00;100860.03;4938138;29;20210;-83
2022/09/30 03:43:43;;;;;;;16.50;13.37;;;;;;;7.62;100.00;100864.22;4972290;28;20586;-80
2022/09/30 03:46:23;;;;;;;12.93;11.40;;;;;;;7.63;100.00;100860.84;4958368;28;20656;-83
2022/09/30 03:48:54;;;;;;;11.87;10.63;;;;;;;7.66;100.00;100871.16;4976035;28;20188;-83
2022/09/30 03:51:20;;;;;;;12.43;10.80;;;;;;;7.66;100.00;100863.50;4977271;28;20217;-82
2022/09/30 03:53:46;;;;;;;14.37;10.80;;;;;;;7.68;100.00;100866.06;4959291;28;20713;-80
2022/09/30 03:56:12;;;;;;;12.43;10.97;;;;;;;7.66;100.00;100871.16;4955524;28;20189;-82
2022/09/30 03:58:42;;;;;;;11.07;9.97;;;;;;;7.65;100.00;100864.28;4955851;29;20188;-82
2022/09/30 04:01:23;;;;;;;16.40;10.93;;;;;;;7.65;100.00;100863.44;4968659;28;20221;-81
2022/09/30 04:03:52;;;;;;;10.40;9.23;;;;;;;7.62;100.00;100865.91;4971636;28;20189;-82
2022/09/30 04:06:20;;;;;;;10.47;9.40;;;;;;;7.63;100.00;100867.63;4974043;28;20233;-81
2022/09/30 04:08:46;;;;;;;10.80;9.63;;;;;;;7.60;100.00;100873.47;4960802;28;20189;-82
2022/09/30 04:11:12;;;;;;;11.57;10.30;;;;;;;7.60;100.00;100876.03;4957769;28;20220;-82
2022/09/30 04:13:38;;;;;;;12.57;10.13;;;;;;;7.61;100.00;100870.09;4972266;28;20188;-82
2022/09/30 04:16:05;;;;;;;12.13;10.93;;;;;;;7.60;100.00;100880.28;4971430;28;20189;-81
2022/09/30 04:18:31;;;;;;;13.40;10.60;;;;;;;7.59;100.00;100874.31;4956177;28;20193;-82
2022/09/30 04:20:58;;;;;;;11.20;10.07;;;;;;;7.56;100.00;100878.44;4964186;28;20215;-82
2022/09/30 04:23:24;;;;;;;12.00;10.80;;;;;;;7.59;100.00;100874.31;4957089;28;20199;-80
2022/09/30 04:25:55;;;;;;;11.87;10.33;;;;;;;7.61;100.00;100876.91;4977497;28;20213;-78
2022/09/30 04:28:22;;;;;;;13.73;11.37;;;;;;;7.59;100.00;100888.72;4961742;28;20197;-81
2022/09/30 04:30:47;;;;;;;12.70;11.30;;;;;;;7.52;100.00;100885.13;4971807;28;20295;-83
2022/09/30 04:33:13;;;;;;;12.77;10.67;;;;;;;7.51;100.00;100893.56;4971725;28;20822;-83
2022/09/30 04:35:39;;;;;;;12.03;10.13;;;;;;;7.49;100.00;100897.75;4971820;28;20257;-82
2022/09/30 04:38:06;;;;;;;11.93;10.13;;;;;;;7.43;100.00;100904.34;4955438;29;20281;-83
2022/09/30 04:40:35;;;;;;;11.37;9.73;;;;;;;7.37;100.00;100906.69;4957475;28;20292;-80
2022/09/30 04:43:01;;;;;;;12.47;10.47;;;;;;;7.33;100.00;100908.25;4974497;28;20197;-80
2022/09/30 04:45:26;;;;;;;10.50;9.47;;;;;;;7.35;100.00;100913.41;4961418;29;20216;-83
2022/09/30 04:47:52;;;;;;;13.17;11.33;;;;;;;7.36;100.00;100916.00;4977096;28;20298;-83
2022/09/30 04:50:17;;;;;;;12.77;11.50;;;;;;;7.35;100.00;100921.91;4959438;28;20259;-79
2022/09/30 04:52:43;;;;;;;13.20;11.43;;;;;;;7.34;100.00;100915.09;4957337;29;20549;-81
2022/09/30 04:55:10;;;;;;;11.87;10.67;;;;;;;7.31;100.00;100906.47;4957534;28;20211;-82
2022/09/30 04:57:36;;;;;;;12.60;10.97;;;;;;;7.33;100.00;100915.06;4958105;28;20260;-82
2022/09/30 05:00:04;;;;;;;13.10;10.50;;;;;;;7.31;100.00;100920.09;4974276;28;20656;-84
2022/09/30 05:02:30;;;;;;;11.37;10.17;;;;;;;7.28;100.00;100924.22;4964811;28;20189;-82
2022/09/30 05:04:55;;;;;;;12.43;11.13;;;;;;;7.26;100.00;100929.25;4972437;28;20201;-83
2022/09/30 05:07:21;;;;;;;15.63;10.67;;;;;;;7.22;100.00;100937.59;4956920;28;20196;-80
2022/09/30 05:09:46;;;;;;;11.63;10.53;;;;;;;7.14;100.00;100943.25;4957642;28;20201;-83
2022/09/30 05:12:12;;;;;;;10.77;9.27;;;;;;;7.09;100.00;100939.69;4973716;28;20685;-82
2022/09/30 05:14:37;;;;;;;13.90;10.10;;;;;;;7.05;100.00;100950.56;4957657;28;20266;-82
2022/09/30 05:17:03;;;;;;;12.23;9.43;;;;;;;6.98;100.00;100944.41;4939815;29;20556;-83
2022/09/30 05:19:29;;;;;;;10.63;9.20;;;;;;;6.99;100.00;100948.66;4972613;28;20359;-81
2022/09/30 05:21:55;;;;;;;10.20;9.10;;;;;;;6.99;100.00;100948.66;4973531;28;20212;-83
2022/09/30 05:24:20;;;;;;;11.20;9.77;;;;;;;6.94;100.00;100960.38;4958300;28;20201;-83
2022/09/30 05:26:46;;;;;;;10.97;9.87;;;;;;;6.91;100.00;100957.72;4954840;28;20229;-79
2022/09/30 05:29:11;;;;;;;10.47;9.10;;;;;;;6.88;100.00;100960.16;4958260;28;20181;-83
2022/09/30 05:31:37;;;;;;;11.17;9.87;;;;;;;6.84;99.84;100960.88;4959562;29;20578;-83
2022/09/30 05:34:03;;;;;;;10.77;9.43;;;;;;;6.82;99.88;100959.94;4960486;28;20196;-81
2022/09/30 05:36:28;;;;;;;10.30;9.20;;;;;;;6.84;99.67;100967.63;4973775;28;20193;-81
2022/09/30 05:38:54;;;;;;;9.83;8.20;;;;;;;6.82;99.19;100957.38;4958744;29;20281;-83
2022/09/30 05:41:19;;;;;;;10.90;9.80;;;;;;;6.95;99.67;100966.34;4960880;28;20299;-83
2022/09/30 05:43:48;;;;;;;14.57;12.43;;;;;;;7.04;99.53;100966.66;4963297;28;20185;-78
2022/09/30 05:46:18;;;;;;;13.70;11.80;;;;;;;7.09;99.86;100968.53;4959138;28;20219;-80
2022/09/30 05:48:44;;;;;;;13.37;11.87;;;;;;;7.16;100.00;100973.03;4958584;28;20592;-81
2022/09/30 05:51:09;;;;;;;13.57;11.67;;;;;;;7.24;100.00;100970.75;4960433;28;20217;-81
2022/09/30 05:53:40;;;;;;;13.87;11.30;;;;;;;7.29;100.00;100974.31;4958517;28;20197;-80
2022/09/30 05:56:06;;;;;;;11.90;10.70;;;;;;;7.32;100.00;100970.19;4956727;29;20272;-81
2022/09/30 05:58:32;;;;;;;12.90;11.60;;;;;;;7.38;100.00;100974.66;4959301;28;20197;-80
2022/09/30 06:01:05;;;;;;;13.17;11.63;;;;;;;7.39;100.00;100971.28;4964600;28;20351;-80
2022/09/30 06:03:30;;;;;;;12.90;10.23;;;;;;;7.35;100.00;100971.97;4940129;29;20216;-82
2022/09/30 06:05:56;;;;;;;11.53;10.33;;;;;;;7.34;100.00;100977.91;4956965;28;20564;-81
2022/09/30 06:08:23;;;;;;;13.40;11.57;;;;;;;7.27;100.00;100981.06;4972401;28;20185;-81
2022/09/30 06:10:49;;;;;;;12.00;10.67;;;;;;;7.27;100.00;100981.91;4937100;29;20210;-81
2022/09/30 06:13:16;;;;;;;13.87;10.77;;;;;;;7.29;100.00;100989.59;4956402;28;20216;-81
2022/09/30 06:15:42;;;;;;;13.97;10.70;;;;;;;7.31;100.00;100996.50;4962867;28;20192;-81
2022/09/30 06:18:08;;;;;;;13.03;11.70;;;;;;;7.39;100.00;101000.19;4961186;28;20330;-81
2022/09/30 06:20:37;;;;;;;14.37;11.37;;;;;;;7.47;100.00;100998.72;4958020;28;20216;-81
2022/09/30 06:23:03;;;;;;;13.50;11.63;;;;;;;7.52;100.00;100989.59;4976210;28;20267;-82
2022/09/30 06:25:30;;;;;;;14.30;12.37;;;;;;;7.62;100.00;100994.16;4953061;28;20217;-81
2022/09/30 06:27:56;;;;;;;13.20;11.47;;;;;;;7.70;100.00;100990.16;4958542;29;20204;-79
2022/09/30 06:30:21;;;;;;;15.27;12.13;;;;;;;7.79;100.00;101000.66;4944562;29;20217;-82
2022/09/30 06:32:47;;;;;;;15.23;12.30;;;;;;;7.95;100.00;100992.72;4974121;28;20192;-83
2022/09/30 06:35:12;;;;;;;33.27;22.97;;;;;;;8.05;100.00;100998.97;4958829;28;20185;-80
2022/09/30 06:37:38;;;;;;;25.10;17.47;;;;;;;8.24;100.00;101004.72;4959781;28;20569;-80
2022/09/30 06:40:05;;;;;;;16.20;13.80;;;;;;;8.14;100.00;101002.69;4961219;28;20815;-80
2022/09/30 06:42:30;;;;;;;14.20;12.23;;;;;;;8.05;100.00;101006.59;4971326;28;20208;-79
2022/09/30 06:44:56;;;;;;;16.43;13.77;;;;;;;8.04;100.00;100998.09;4967010;28;20267;-83
2022/09/30 06:47:21;;;;;;;14.87;13.37;;;;;;;8.02;100.00;101011.63;4959950;28;20232;-83
2022/09/30 06:49:47;;;;;;;15.97;13.73;;;;;;;8.02;100.00;101009.09;4975988;28;20207;-80
2022/09/30 06:52:12;;;;;;;16.63;14.13;;;;;;;8.05;100.00;101014.25;4962737;28;20713;-84
2022/09/30 06:54:41;;;;;;;16.30;13.10;;;;;;;8.09;100.00;101018.63;4976699;28;20189;-83
2022/09/30 06:57:07;;;;;;;15.10;12.03;;;;;;;8.08;100.00;101015.25;4961674;28;20578;-82
2022/09/30 06:59:32;;;;;;;13.07;11.73;;;;;;;8.11;100.00;101022.97;4973712;28;20221;-83
2022/09/30 07:01:57;;;;;;;13.53;11.87;;;;;;;8.16;100.00;101020.59;4971471;28;20248;-80
2022/09/30 07:04:23;;;;;;;14.03;12.53;;;;;;;8.66;100.00;101020.47;4955869;29;20329;-79
2022/09/30 07:06:49;;;;;;;12.83;11.33;;;;;;;9.00;100.00;101015.50;4959898;28;20240;-82
2022/09/30 07:09:15;;;;;;;14.47;12.40;;;;;;;9.24;100.00;101009.41;4956768;28;20224;-81
2022/09/30 07:11:41;;;;;;;13.57;12.17;;;;;;;9.54;100.00;101002.53;4957607;28;20248;-79
2022/09/30 07:14:07;;;;;;;12.80;11.50;;;;;;;9.69;99.96;100994.41;4964150;28;20189;-81
2022/09/30 07:16:33;;;;;;;16.57;12.13;;;;;;;9.89;99.14;100999.19;4963920;28;20185;-82
2022/09/30 07:19:03;;;;;;;14.73;13.23;;;;;;;10.02;99.08;101001.22;4956831;28;20629;-81
2022/09/30 07:21:30;;;;;;;13.63;12.20;;;;;;;10.22;98.55;100994.88;4957355;28;20423;-81
2022/09/30 07:23:57;;;;;;;13.63;12.10;;;;;;;10.42;98.08;100993.63;4957492;29;20235;-82
2022/09/30 07:26:23;;;;;;;14.47;11.80;;;;;;;10.63;97.28;100993.22;4958677;28;20249;-82
2022/09/30 07:28:50;;;;;;;14.07;12.57;;;;;;;10.71;96.49;101002.84;4961559;28;20248;-82
2022/09/30 07:31:21;;;;;;;14.10;12.50;;;;;;;10.90;96.40;101001.50;4973453;28;20205;-81
2022/09/30 07:33:50;;;;;;;16.83;12.93;;;;;;;11.09;96.01;100993.34;4962388;28;20191;-78
2022/09/30 07:36:17;;;;;;;13.30;11.93;;;;;;;11.26;95.24;100992.84;4963525;28;20181;-79
2022/09/30 07:38:44;;;;;;;13.33;11.97;;;;;;;11.35;94.16;100994.72;4955675;28;20225;-82
2022/09/30 07:41:15;;;;;;;12.13;10.93;;;;;;;11.57;93.38;100981.44;4957360;28;20279;-83
2022/09/30 07:43:45;;;;;;;13.27;11.67;;;;;;;11.61;92.92;100988.41;4969675;28;20617;-82
2022/09/30 07:46:16;;;;;;;11.77;10.57;;;;;;;11.91;91.72;100976.06;4959897;28;20221;-79
2022/09/30 07:51:11;;;;;;;12.03;10.00;;;;;;;12.52;90.04;100978.69;4960759;28;20215;-83
2022/09/30 07:53:37;;;;;;;10.83;9.77;;;;;;;12.47;88.49;100988.91;4973498;28;20189;-81
2022/09/30 07:56:06;;;;;;;12.37;10.23;;;;;;;12.61;87.64;100989.97;4958255;28;20196;-80
2022/09/30 07:58:32;;;;;;;10.03;9.03;;;;;;;12.93;86.88;100992.09;4962389;28;20209;-83
2022/09/30 08:00:58;;;;;;;10.60;9.60;;;;;;;13.15;85.82;101001.78;4957686;28;20560;-83
2022/09/30 08:03:23;;;;;;;11.33;10.23;;;;;;;12.83;86.53;100998.81;4962559;28;20197;-80
2022/09/30 08:05:49;;;;;;;11.17;10.03;;;;;;;13.08;86.44;101003.41;4957428;28;20271;-82
2022/09/30 08:08:16;;;;;;;10.03;9.07;;;;;;;13.14;85.36;101008.66;4957248;28;20235;-82
2022/09/30 08:10:42;;;;;;;10.90;9.80;;;;;;;13.06;84.78;101014.53;4958064;28;20208;-80
2022/09/30 08:13:08;;;;;;;11.73;9.77;;;;;;;13.24;84.11;101013.06;4976408;28;20180;-79
2022/09/30 08:15:34;;;;;;;10.27;9.27;;;;;;;13.45;84.18;101008.13;4965756;28;20200;-80
2022/09/30 08:17:59;;;;;;;10.20;9.20;;;;;;;13.58;83.33;101007.41;4970939;28;20200;-82
2022/09/30 08:20:25;;;;;;;11.30;9.63;;;;;;;13.62;82.76;101001.44;4973397;28;20300;-80
2022/09/30 08:22:54;;;;;;;9.97;8.97;;;;;;;14.33;81.47;101002.94;4944566;28;20196;-80
2022/09/30 08:25:21;;;;;;;10.70;9.63;;;;;;;14.66;80.20;101002.28;4962078;28;20186;-79
2022/09/30 08:27:47;;;;;;;10.17;9.07;;;;;;;14.79;78.28;101015.25;4965656;28;20208;-79
2022/09/30 08:30:13;;;;;;;9.93;8.57;;;;;;;15.20;77.13;101007.69;4971416;28;20690;-80
2022/09/30 08:32:38;;;;;;;10.37;9.27;;;;;;;15.04;76.64;101011.03;4972136;28;20177;-81
2022/09/30 08:35:05;;;;;;;9.43;8.37;;;;;;;15.54;75.88;101009.50;4960128;28;20193;-81
2022/09/30 08:37:30;;;;;;;9.37;8.40;;;;;;;15.39;75.15;101006.91;4942064;29;20216;-80
2022/09/30 08:39:56;;;;;;;9.23;8.40;;;;;;;15.59;74.19;101003.50;4973498;28;20216;-81
2022/09/30 08:42:21;;;;;;;9.73;8.73;;;;;;;16.09;73.46;101006.97;4956048;28;20204;-79
2022/09/30 08:44:48;;;;;;;8.27;7.40;;;;;;;16.47;70.98;101012.13;4981669;28;20193;-78
2022/09/30 08:47:16;;;;;;;9.33;8.43;;;;;;;16.60;71.45;101011.25;4951212;29;20220;-78
2022/09/30 08:50:05;;;;;;;9.27;8.27;;;;;;;16.84;69.43;101013.75;4960520;29;20209;-81
2022/09/30 08:52:44;;;;;;;8.97;7.77;;;;;;;17.35;68.50;101013.53;4952558;28;20208;-81
2022/09/30 08:55:20;;;;;;;8.40;7.55;;;;;;;17.93;64.86;101014.91;4958758;28;20193;-80
2022/09/30 08:57:46;;;;;;;7.95;6.93;;;;;;;18.52;62.24;101010.94;4956896;29;21011;-80
2022/09/30 09:00:15;;;;;;;8.73;7.47;;;;;;;17.84;64.30;101020.16;4961746;28;20272;-80
2022/09/30 09:02:43;;;;;;;8.67;7.00;;;;;;;17.36;65.56;101016.09;4958370;28;20263;-81
2022/09/30 09:05:23;;;;;;;6.83;6.13;;;;;;;17.46;64.73;101015.22;4962225;28;20182;-82
2022/09/30 09:07:57;;;;;;;7.17;6.47;;;;;;;17.50;64.59;101016.91;4959191;28;20197;-80
2022/09/30 09:10:43;;;;;;;6.93;6.20;;;;;;;16.91;67.46;101024.06;4960271;28;20724;-82
2022/09/30 09:13:15;;;;;;;7.00;6.40;;;;;;;17.01;67.81;101027.50;4958544;28;20177;-81
2022/09/30 09:15:51;;;;;;;10.23;7.93;;;;;;;16.71;68.46;101014.69;4959106;28;20200;-79
2022/09/30 09:18:37;;;;;;;7.10;6.40;;;;;;;17.42;66.66;101016.13;4973011;28;20176;-79
2022/09/30 09:21:12;;;;;;;7.53;6.73;;;;;;;17.95;65.79;101007.97;4955829;28;20228;-81
2022/09/30 09:23:37;;;;;;;10.00;9.07;;;;;;;20.38;58.46;101000.56;4967558;28;20188;-81
2022/09/30 09:26:04;;;;;;;9.20;8.30;;;;;;;20.60;56.57;101001.84;4952857;28;20323;-82
2022/09/30 09:28:50;;;;;;;6.38;5.78;;;;;;;21.89;52.06;100996.47;4954206;28;20197;-81
2022/09/30 09:31:18;;;;;;;6.90;5.53;;;;;;;23.78;46.41;100985.03;4960248;28;20602;-81
2022/09/30 09:33:46;;;;;;;5.47;4.97;;;;;;;22.06;49.04;100994.31;4961650;28;20198;-84
2022/09/30 09:36:33;;;;;;;5.35;4.80;;;;;;;22.66;48.17;100996.25;4957823;28;20193;-80
2022/09/30 09:39:01;;;;;;;5.55;5.00;;;;;;;21.79;50.05;101004.59;4957999;28;20794;-82
2022/09/30 09:41:48;;;;;;;5.22;4.28;;;;;;;20.71;53.01;101009.47;4966503;28;20216;-79
2022/09/30 09:44:35;;;;;;;6.27;4.73;;;;;;;19.89;56.73;101002.22;4962388;29;20208;-79
2022/09/30 09:47:03;;;;;;;3.77;3.43;;;;;;;21.21;52.34;101004.13;4957391;28;20284;-79
2022/09/30 09:49:37;;;;;;;3.35;3.05;;;;;;;21.61;50.17;100995.38;4956987;28;20197;-81
2022/09/30 09:52:11;;;;;;;3.95;3.65;;;;;;;23.47;47.15;100994.75;4957586;28;20190;-81
2022/09/30 09:54:55;;;;;;;4.25;3.78;;;;;;;22.64;47.24;100998.06;4967470;28;20534;-82
2022/09/30 09:57:24;;;;;;;3.38;2.75;;;;;;;19.77;54.39;101011.97;4953190;29;20196;-80
2022/09/30 09:59:53;;;;;;;5.83;3.87;;;;;;;19.10;57.79;101014.59;4969082;28;20623;-80
2022/09/30 10:02:28;;;;;;;5.23;3.27;;;;;;;18.08;61.01;101018.25;4953357;29;20225;-80
2022/09/30 10:05:00;;;;;;;2.40;2.00;;;;;;;17.82;61.91;101029.69;4964628;28;20192;-79
2022/09/30 10:07:28;;;;;;;2.63;1.80;;;;;;;17.84;61.11;101015.84;4954717;28;20209;-79
2022/09/30 10:10:14;;;;;;;2.60;1.70;;;;;;;17.04;62.35;101024.91;4949392;29;20297;-81
2022/09/30 10:12:40;;;;;;;2.57;1.57;;;;;;;16.70;63.18;101021.56;4944582;28;20225;-80
2022/09/30 10:15:20;;;;;;;4.17;3.77;;;;;;;16.81;67.16;101026.72;4960985;28;20201;-80
2022/09/30 10:17:57;;;;;;;6.30;5.70;;;;;;;16.78;67.69;101024.13;4968899;28;20284;-80
2022/09/30 10:20:34;;;;;;;7.37;6.67;;;;;;;20.50;58.27;101002.91;4952368;28;20232;-80
2022/09/30 10:23:24;;;;;;;7.90;6.77;;;;;;;19.03;60.79;101012.09;4951955;28;20192;-80
2022/09/30 10:25:59;;;;;;;6.53;5.47;;;;;;;22.43;53.05;100997.69;4951656;28;20759;-81
2022/09/30 10:28:28;;;;;;;4.60;4.20;;;;;;;22.78;48.06;101001.16;4953479;29;20188;-81
2022/09/30 10:30:58;;;;;;;4.55;4.15;;;;;;;19.13;56.65;101024.09;4979766;28;20223;-80
2022/09/30 10:33:31;;;;;;;6.07;5.33;;;;;;;18.39;61.78;101022.31;4954658;28;20198;-81
2022/09/30 10:36:02;;;;;;;5.57;5.00;;;;;;;24.64;46.04;101003.09;4962742;28;20187;-81
2022/09/30 10:38:30;;;;;;;4.50;4.07;;;;;;;19.71;54.96;101017.25;4963548;28;20276;-81
2022/09/30 10:40:57;;;;;;;5.67;4.97;;;;;;;17.98;61.90;101029.56;4966281;28;20217;-81
2022/09/30 10:43:28;;;;;;;5.40;4.90;;;;;;;17.90;62.53;101025.28;4950249;29;20762;-79
2022/09/30 10:45:53;;;;;;;5.30;4.40;;;;;;;17.93;62.87;101031.34;4963972;28;20226;-81
2022/09/30 10:48:23;;;;;;;5.17;4.43;;;;;;;17.81;63.04;101033.13;4955471;28;20201;-80
2022/09/30 10:50:50;;;;;;;3.97;2.77;;;;;;;19.12;57.48;101018.03;4963801;28;20264;-81
2022/09/30 10:53:23;;;;;;;3.70;3.00;;;;;;;21.02;55.07;101013.22;4948074;29;20194;-79
2022/09/30 10:55:49;;;;;;;3.27;2.20;;;;;;;19.81;54.18;101016.22;4954008;28;20189;-80
2022/09/30 10:58:29;;;;;;;2.73;1.80;;;;;;;24.55;43.65;100987.66;4965705;28;20264;-79
2022/09/30 11:01:16;;;;;;;2.30;1.33;;;;;;;29.53;33.55;100967.19;4969649;28;20216;-79
2022/09/30 11:03:53;;;;;;;1.40;0.90;;;;;;;27.41;35.02;100980.97;4971509;28;20338;-77
2022/09/30 11:06:21;;;;;;;2.20;1.10;;;;;;;20.22;49.27;101019.06;4951218;28;20216;-80
2022/09/30 11:08:58;;;;;;;1.80;1.27;;;;;;;24.25;40.65;100997.44;4965290;28;20209;-81
2022/09/30 11:11:32;;;;;;;1.50;1.40;;;;;;;20.89;48.21;101009.97;4963352;28;20216;-79
2022/09/30 11:14:26;;;;;;;1.57;0.90;;;;;;;20.44;48.87;101013.44;4963978;28;20247;-80
2022/09/30 11:17:01;;;;;;;3.20;1.00;;;;;;;22.42;43.65;100998.59;4955799;28;20646;-80
2022/09/30 11:19:53;;;;;;;2.25;1.30;;;;;;;27.33;35.69;100977.84;4953536;29;20350;-78
2022/09/30 11:22:24;;;;;;;0.93;0.90;;;;;;;25.39;36.50;100985.41;4950657;28;20834;-79
2022/09/30 11:24:53;;;;;;;1.20;0.90;;;;;;;28.32;32.05;100970.25;4965718;28;20227;-80
2022/09/30 11:27:35;;;;;;;0.85;0.82;;;;;;;23.01;41.55;100996.13;4957722;28;20685;-80
2022/09/30 11:30:18;;;;;;;1.10;1.00;;;;;;;22.70;42.01;100996.13;4964919;28;20223;-79
2022/09/30 11:32:55;;;;;;;1.88;1.15;;;;;;;30.13;30.36;100969.81;4969639;28;20189;-79
2022/09/30 11:35:40;;;;;;;1.88;1.15;;;;;;;24.29;38.07;100996.41;4962155;28;20658;-79
2022/09/30 11:38:34;;;;;;;2.22;1.23;;;;;;;25.82;36.36;100984.50;4956658;28;20264;-80